createdAt,value
2017-08-01T00:00:15.795Z,20.45
2017-08-01T00:01:26.297Z,20.48
2017-08-01T00:02:36.791Z,20.42
2017-08-01T00:03:47.549Z,20.43
2017-08-01T00:04:58.035Z,20.53
2017-08-01T00:06:08.497Z,20.42
2017-08-01T00:07:18.925Z,20.35
2017-08-01T00:08:29.673Z,20.36
2017-08-01T00:09:40.391Z,20.39
2017-08-01T00:10:50.862Z,20.26
2017-08-01T00:12:01.113Z,20.28
2017-08-01T00:13:11.646Z,20.28
2017-08-01T00:14:22.124Z,20.21
2017-08-01T00:15:32.856Z,20.11
2017-08-01T00:16:43.393Z,20.12
2017-08-01T00:17:53.573Z,20.12
2017-08-01T00:19:04.160Z,20.04
2017-08-01T00:20:14.245Z,20.07
2017-08-01T00:21:24.337Z,20.03
2017-08-01T00:22:34.525Z,19.98
2017-08-01T00:23:45.022Z,19.97
2017-08-01T00:24:55.176Z,20.03
2017-08-01T00:26:05.714Z,20.08
2017-08-01T00:27:16.466Z,20
2017-08-01T00:28:27.011Z,19.98
2017-08-01T00:29:37.575Z,20
2017-08-01T00:30:48.043Z,19.98
2017-08-01T00:31:58.502Z,20
2017-08-01T00:33:09.209Z,19.95
2017-08-01T00:34:19.713Z,19.98
2017-08-01T00:35:30.211Z,19.9
2017-08-01T00:36:40.904Z,19.86
2017-08-01T00:37:51.402Z,19.93
2017-08-01T00:39:02.235Z,19.92
2017-08-01T00:40:12.797Z,19.88
2017-08-01T00:41:23.437Z,19.85
2017-08-01T00:42:33.891Z,19.83
2017-08-01T00:43:44.051Z,19.83
2017-08-01T00:44:54.792Z,19.78
2017-08-01T00:46:05.325Z,19.78
2017-08-01T00:47:15.792Z,19.76
2017-08-01T00:48:26.278Z,19.74
2017-08-01T00:49:36.800Z,19.67
2017-08-01T00:50:47.515Z,19.71
2017-08-01T00:51:58.099Z,19.71
2017-08-01T00:53:08.305Z,19.64
2017-08-01T00:54:18.773Z,19.64
2017-08-01T00:55:29.343Z,19.79
2017-08-01T00:56:40.074Z,19.79
2017-08-01T00:57:50.545Z,19.7
2017-08-01T00:59:01.157Z,19.71
2017-08-01T01:00:11.606Z,19.78
2017-08-01T01:01:22.134Z,19.76
2017-08-01T01:02:32.906Z,19.7
2017-08-01T01:03:43.447Z,19.61
2017-08-01T01:04:53.992Z,19.61
2017-08-01T01:06:04.691Z,19.65
2017-08-01T01:07:15.153Z,19.67
2017-08-01T01:08:25.896Z,19.58
2017-08-01T01:09:36.352Z,19.63
2017-08-01T01:10:46.826Z,19.67
2017-08-01T01:11:57.431Z,19.7
2017-08-01T01:13:07.950Z,19.68
2017-08-01T01:14:18.874Z,19.73
2017-08-01T01:15:29.342Z,19.63
2017-08-01T01:16:40.039Z,19.58
2017-08-01T01:17:50.573Z,19.61
2017-08-01T01:19:01.079Z,19.56
2017-08-01T01:20:11.823Z,19.48
2017-08-01T01:21:21.557Z,19.37
2017-08-01T01:22:32.049Z,19.37
2017-08-01T01:23:42.517Z,19.33
2017-08-01T01:24:53.036Z,19.23
2017-08-01T01:26:03.330Z,19.33
2017-08-01T01:27:13.830Z,19.3
2017-08-01T01:28:24.458Z,19.27
2017-08-01T01:29:34.917Z,19.31
2017-08-01T01:30:45.507Z,19.27
2017-08-01T01:31:56.365Z,19.19
2017-08-01T01:33:06.842Z,19.21
2017-08-01T01:34:17.338Z,19.18
2017-08-01T01:35:27.805Z,19.23
2017-08-01T01:36:38.256Z,19.24
2017-08-01T01:37:49.034Z,19.23
2017-08-01T01:38:59.510Z,19.21
2017-08-01T01:40:10.035Z,19.21
2017-08-01T01:41:20.731Z,19.15
2017-08-01T01:42:30.766Z,19.15
2017-08-01T01:43:41.498Z,19.09
2017-08-01T01:44:52.074Z,19.08
2017-08-01T01:46:02.643Z,19.06
2017-08-01T01:47:13.093Z,19
2017-08-01T01:48:23.662Z,18.95
2017-08-01T01:49:34.393Z,18.98
2017-08-01T01:50:44.845Z,18.94
2017-08-01T01:51:55.313Z,18.93
2017-08-01T01:53:05.794Z,18.93
2017-08-01T01:54:16.261Z,18.88
2017-08-01T01:55:27.001Z,18.94
2017-08-01T01:56:37.632Z,18.95
2017-08-01T01:57:48.162Z,18.91
2017-08-01T01:58:58.647Z,18.95
2017-08-01T02:00:09.209Z,18.94
2017-08-01T02:01:19.647Z,18.98
2017-08-01T02:02:29.815Z,18.98
2017-08-01T02:03:40.315Z,18.93
2017-08-01T02:04:50.789Z,18.87
2017-08-01T02:06:00.947Z,18.84
2017-08-01T02:07:11.690Z,18.78
2017-08-01T02:08:22.208Z,18.71
2017-08-01T02:09:32.697Z,18.6
2017-08-01T02:10:42.749Z,18.6
2017-08-01T02:11:53.261Z,18.6
2017-08-01T02:13:04.008Z,18.62
2017-08-01T02:14:14.487Z,18.59
2017-08-01T02:15:25.068Z,18.65
2017-08-01T02:16:35.540Z,18.72
2017-08-01T02:17:46.061Z,18.69
2017-08-01T02:18:57.026Z,18.8
2017-08-01T02:20:07.207Z,18.87
2017-08-01T02:21:17.679Z,18.8
2017-08-01T02:22:27.827Z,18.87
2017-08-01T02:23:37.917Z,18.82
2017-08-01T02:24:48.777Z,18.72
2017-08-01T02:25:59.245Z,18.69
2017-08-01T02:27:09.760Z,18.67
2017-08-01T02:28:20.297Z,18.56
2017-08-01T02:29:30.756Z,18.6
2017-08-01T02:30:41.518Z,18.63
2017-08-01T02:31:52.030Z,18.65
2017-08-01T02:33:02.563Z,18.71
2017-08-01T02:34:13.054Z,18.73
2017-08-01T02:35:23.529Z,18.67
2017-08-01T02:36:34.249Z,18.82
2017-08-01T02:37:44.701Z,18.72
2017-08-01T02:38:55.268Z,18.73
2017-08-01T02:40:05.803Z,18.87
2017-08-01T02:41:16.297Z,18.87
2017-08-01T02:42:26.993Z,18.86
2017-08-01T02:43:37.473Z,18.93
2017-08-01T02:44:47.940Z,18.93
2017-08-01T02:45:58.408Z,18.9
2017-08-01T02:47:08.906Z,18.82
2017-08-01T02:48:19.672Z,18.79
2017-08-01T02:49:29.983Z,18.73
2017-08-01T02:50:40.441Z,18.65
2017-08-01T02:51:51.106Z,18.62
2017-08-01T02:53:01.263Z,18.57
2017-08-01T02:54:12.035Z,18.5
2017-08-01T02:55:22.559Z,18.53
2017-08-01T02:56:33.023Z,18.47
2017-08-01T02:57:43.546Z,18.49
2017-08-01T02:58:54.286Z,18.57
2017-08-01T03:00:05.043Z,18.5
2017-08-01T03:01:15.507Z,18.56
2017-08-01T03:02:26.030Z,18.52
2017-08-01T03:03:36.220Z,18.5
2017-08-01T03:04:46.690Z,18.44
2017-08-01T03:05:57.418Z,18.44
2017-08-01T03:07:07.977Z,18.34
2017-08-01T03:08:18.454Z,18.37
2017-08-01T03:09:28.909Z,18.3
2017-08-01T03:10:39.368Z,18.19
2017-08-01T03:11:50.229Z,18.12
2017-08-01T03:13:00.696Z,18.07
2017-08-01T03:14:11.175Z,18.02
2017-08-01T03:15:21.959Z,17.98
2017-08-01T03:16:32.638Z,18
2017-08-01T03:17:43.395Z,17.91
2017-08-01T03:18:53.847Z,17.85
2017-08-01T03:20:04.319Z,17.73
2017-08-01T03:21:14.807Z,17.68
2017-08-01T03:22:25.267Z,17.64
2017-08-01T03:23:36.033Z,17.6
2017-08-01T03:24:46.517Z,17.45
2017-08-01T03:25:57.185Z,17.4
2017-08-01T03:27:07.663Z,17.45
2017-08-01T03:28:18.307Z,17.42
2017-08-01T03:29:29.139Z,17.35
2017-08-01T03:30:39.647Z,17.35
2017-08-01T03:31:50.220Z,17.46
2017-08-01T03:33:00.418Z,17.36
2017-08-01T03:34:10.874Z,17.46
2017-08-01T03:35:21.613Z,17.45
2017-08-01T03:36:32.059Z,17.38
2017-08-01T03:37:42.636Z,17.32
2017-08-01T03:38:53.134Z,17.28
2017-08-01T03:40:03.155Z,17.31
2017-08-01T03:41:13.908Z,17.3
2017-08-01T03:42:24.393Z,17.3
2017-08-01T03:43:34.860Z,17.23
2017-08-01T03:44:45.371Z,17.31
2017-08-01T03:45:55.849Z,17.31
2017-08-01T03:47:06.599Z,17.24
2017-08-01T03:48:17.069Z,17.35
2017-08-01T03:49:27.553Z,17.36
2017-08-01T03:50:37.998Z,17.43
2017-08-01T03:51:48.686Z,17.27
2017-08-01T03:52:59.406Z,17.31
2017-08-01T03:54:09.890Z,17.32
2017-08-01T03:55:20.059Z,17.3
2017-08-01T03:56:30.254Z,17.27
2017-08-01T03:57:40.769Z,17.31
2017-08-01T03:58:51.483Z,17.21
2017-08-01T04:00:01.960Z,17.11
2017-08-01T04:01:12.434Z,17.11
2017-08-01T04:02:23.110Z,17.08
2017-08-01T04:03:33.736Z,17.06
2017-08-01T04:04:44.447Z,17.06
2017-08-01T04:05:54.940Z,17.06
2017-08-01T04:07:05.408Z,17.08
2017-08-01T04:08:15.866Z,16.99
2017-08-01T04:09:26.357Z,17.05
2017-08-01T04:10:37.076Z,16.96
2017-08-01T04:11:47.545Z,16.87
2017-08-01T04:12:58.070Z,16.83
2017-08-01T04:14:08.783Z,16.72
2017-08-01T04:15:19.251Z,16.8
2017-08-01T04:16:29.964Z,16.69
2017-08-01T04:17:40.444Z,16.57
2017-08-01T04:18:50.943Z,16.53
2017-08-01T04:20:01.658Z,16.64
2017-08-01T04:21:11.817Z,16.49
2017-08-01T04:22:22.607Z,16.43
2017-08-01T04:23:33.064Z,16.47
2017-08-01T04:24:43.665Z,16.47
2017-08-01T04:25:54.157Z,16.47
2017-08-01T04:27:04.678Z,16.46
2017-08-01T04:28:15.447Z,16.51
2017-08-01T04:29:25.942Z,16.46
2017-08-01T04:30:36.092Z,16.44
2017-08-01T04:31:46.642Z,16.46
2017-08-01T04:32:57.137Z,16.47
2017-08-01T04:34:07.825Z,16.44
2017-08-01T04:35:18.328Z,16.39
2017-08-01T04:36:28.799Z,16.42
2017-08-01T04:37:39.291Z,16.47
2017-08-01T04:38:49.807Z,16.43
2017-08-01T04:40:00.244Z,16.46
2017-08-01T04:41:10.684Z,16.42
2017-08-01T04:42:21.149Z,16.21
2017-08-01T04:43:31.641Z,16.21
2017-08-01T04:44:42.307Z,16.13
2017-08-01T04:45:53.049Z,16.1
2017-08-01T04:47:35.023Z,15.96
2017-08-01T04:48:45.493Z,15.94
2017-08-01T04:49:55.954Z,15.94
2017-08-01T04:51:06.751Z,15.96
2017-08-01T04:52:17.205Z,16.01
2017-08-01T04:53:27.648Z,15.94
2017-08-01T04:54:38.265Z,15.99
2017-08-01T04:55:48.782Z,16.07
2017-08-01T04:56:59.579Z,16.06
2017-08-01T04:58:10.086Z,16.13
2017-08-01T04:59:20.599Z,16.14
2017-08-01T05:00:31.082Z,16.07
2017-08-01T05:01:41.533Z,16.11
2017-08-01T05:02:52.020Z,16.17
2017-08-01T05:04:02.201Z,16.27
2017-08-01T05:05:12.684Z,16.14
2017-08-01T05:06:23.357Z,16.27
2017-08-01T05:07:33.804Z,16.27
2017-08-01T05:08:44.555Z,16.19
2017-08-01T05:09:55.015Z,16.32
2017-08-01T05:11:05.484Z,16.24
2017-08-01T05:12:15.963Z,16.21
2017-08-01T05:13:26.561Z,16.34
2017-08-01T05:14:37.265Z,16.21
2017-08-01T05:15:47.735Z,16.31
2017-08-01T05:16:58.325Z,16.35
2017-08-01T05:18:08.823Z,16.31
2017-08-01T05:19:19.340Z,16.42
2017-08-01T05:20:30.123Z,16.44
2017-08-01T05:21:40.639Z,16.38
2017-08-01T05:22:51.341Z,16.43
2017-08-01T05:24:01.811Z,16.53
2017-08-01T05:25:12.333Z,16.46
2017-08-01T05:26:23.293Z,16.39
2017-08-01T05:27:33.421Z,16.38
2017-08-01T05:28:43.890Z,16.39
2017-08-01T05:29:54.438Z,16.47
2017-08-01T05:31:04.921Z,16.47
2017-08-01T05:32:15.637Z,16.59
2017-08-01T05:33:26.269Z,16.61
2017-08-01T05:34:36.836Z,16.68
2017-08-01T05:35:47.284Z,16.72
2017-08-01T05:36:57.869Z,16.76
2017-08-01T05:38:08.579Z,16.89
2017-08-01T05:39:19.085Z,16.89
2017-08-01T05:40:29.548Z,16.96
2017-08-01T05:41:40.028Z,17.11
2017-08-01T05:42:50.555Z,17.12
2017-08-01T05:44:01.281Z,17.06
2017-08-01T05:45:11.746Z,17.06
2017-08-01T05:46:22.266Z,17.14
2017-08-01T05:47:32.735Z,17.12
2017-08-01T05:48:43.214Z,17.08
2017-08-01T05:49:53.904Z,17.14
2017-08-01T05:51:04.426Z,17.2
2017-08-01T05:52:14.901Z,17.2
2017-08-01T05:53:25.367Z,17.31
2017-08-01T05:54:35.817Z,17.3
2017-08-01T05:55:46.649Z,17.3
2017-08-01T05:56:57.128Z,17.3
2017-08-01T05:58:07.686Z,17.35
2017-08-01T05:59:18.166Z,17.43
2017-08-01T06:00:28.698Z,17.42
2017-08-01T06:01:39.441Z,17.54
2017-08-01T06:02:49.924Z,17.43
2017-08-01T06:04:00.395Z,17.4
2017-08-01T06:05:10.874Z,17.47
2017-08-01T06:06:21.367Z,17.54
2017-08-01T06:07:31.334Z,17.61
2017-08-01T06:08:41.800Z,17.58
2017-08-01T06:09:52.317Z,17.64
2017-08-01T06:11:02.933Z,17.6
2017-08-01T06:12:13.110Z,17.61
2017-08-01T06:13:23.822Z,17.55
2017-08-01T06:14:34.352Z,17.54
2017-08-01T06:15:44.825Z,17.5
2017-08-01T06:16:55.035Z,17.49
2017-08-01T06:18:05.049Z,17.49
2017-08-01T06:19:15.789Z,17.57
2017-08-01T06:20:25.981Z,17.49
2017-08-01T06:21:36.520Z,17.5
2017-08-01T06:22:46.979Z,17.52
2017-08-01T06:23:57.695Z,17.5
2017-08-01T06:25:08.941Z,17.49
2017-08-01T06:26:19.413Z,17.47
2017-08-01T06:27:29.847Z,17.5
2017-08-01T06:28:40.398Z,17.5
2017-08-01T06:29:50.861Z,17.55
2017-08-01T06:31:01.725Z,17.6
2017-08-01T06:32:12.232Z,17.54
2017-08-01T06:33:22.729Z,17.54
2017-08-01T06:34:32.909Z,17.58
2017-08-01T06:35:43.377Z,17.61
2017-08-01T06:36:54.230Z,17.55
2017-08-01T06:38:04.255Z,17.62
2017-08-01T06:39:14.766Z,17.6
2017-08-01T06:40:25.240Z,17.57
2017-08-01T06:41:35.708Z,17.58
2017-08-01T06:42:46.496Z,17.6
2017-08-01T06:43:56.978Z,17.47
2017-08-01T06:45:07.477Z,17.43
2017-08-01T06:46:17.944Z,17.49
2017-08-01T06:47:28.675Z,17.38
2017-08-01T06:48:39.408Z,17.45
2017-08-01T06:49:49.917Z,17.38
2017-08-01T06:51:00.407Z,17.38
2017-08-01T06:52:10.889Z,17.38
2017-08-01T06:53:21.369Z,17.45
2017-08-01T06:54:32.132Z,17.46
2017-08-01T06:55:42.814Z,17.52
2017-08-01T06:56:52.973Z,17.46
2017-08-01T06:58:03.451Z,17.58
2017-08-01T06:59:14.017Z,17.6
2017-08-01T07:00:24.729Z,17.62
2017-08-01T07:01:35.337Z,17.61
2017-08-01T07:02:45.784Z,17.65
2017-08-01T07:03:56.261Z,17.58
2017-08-01T07:05:06.826Z,17.68
2017-08-01T07:06:17.230Z,17.75
2017-08-01T07:07:27.715Z,17.79
2017-08-01T07:08:38.229Z,17.82
2017-08-01T07:09:48.706Z,17.87
2017-08-01T07:10:59.408Z,17.86
2017-08-01T07:12:09.701Z,17.89
2017-08-01T07:13:20.309Z,17.97
2017-08-01T07:14:30.556Z,17.94
2017-08-01T07:15:41.019Z,18.09
2017-08-01T07:16:51.520Z,18.12
2017-08-01T07:18:02.268Z,18.23
2017-08-01T07:19:12.970Z,18.26
2017-08-01T07:20:23.477Z,18.3
2017-08-01T07:21:34.054Z,18.32
2017-08-01T07:22:44.231Z,18.4
2017-08-01T07:23:54.942Z,18.4
2017-08-01T07:25:05.553Z,18.38
2017-08-01T07:26:15.575Z,18.4
2017-08-01T07:27:26.169Z,18.53
2017-08-01T07:28:36.625Z,18.59
2017-08-01T07:29:47.368Z,18.6
2017-08-01T07:30:57.854Z,18.84
2017-08-01T07:32:08.505Z,18.97
2017-08-01T07:33:19.070Z,19.05
2017-08-01T07:34:29.566Z,19.12
2017-08-01T07:35:40.600Z,19.21
2017-08-01T07:36:51.093Z,19.27
2017-08-01T07:38:01.583Z,19.35
2017-08-01T07:39:11.747Z,19.35
2017-08-01T07:40:22.212Z,19.52
2017-08-01T07:41:33.079Z,19.53
2017-08-01T07:42:43.544Z,19.64
2017-08-01T07:43:54.114Z,19.68
2017-08-01T07:45:04.584Z,19.71
2017-08-01T07:46:14.529Z,19.73
2017-08-01T07:47:25.226Z,19.64
2017-08-01T07:48:35.735Z,19.6
2017-08-01T07:49:46.226Z,19.61
2017-08-01T07:50:56.722Z,19.63
2017-08-01T07:52:07.183Z,19.63
2017-08-01T07:53:18.135Z,19.71
2017-08-01T07:54:28.612Z,19.73
2017-08-01T07:55:39.144Z,19.79
2017-08-01T07:56:49.634Z,19.92
2017-08-01T07:58:00.111Z,20.04
2017-08-01T07:59:10.825Z,20.12
2017-08-01T08:00:21.403Z,20.23
2017-08-01T08:01:31.962Z,20.3
2017-08-01T08:02:42.534Z,20.38
2017-08-01T08:03:53.021Z,20.46
2017-08-01T08:05:35.454Z,20.36
2017-08-01T08:06:45.924Z,20.43
2017-08-01T08:07:56.493Z,20.43
2017-08-01T08:09:06.984Z,20.41
2017-08-01T08:10:17.737Z,20.48
2017-08-01T08:11:28.228Z,20.42
2017-08-01T08:12:38.706Z,20.54
2017-08-01T08:13:49.208Z,20.49
2017-08-01T08:14:59.769Z,20.56
2017-08-01T08:16:10.526Z,20.58
2017-08-01T08:17:21.076Z,20.58
2017-08-01T08:18:31.424Z,20.63
2017-08-01T08:19:41.870Z,20.67
2017-08-01T08:20:52.683Z,20.76
2017-08-01T08:22:03.543Z,20.79
2017-08-01T08:23:14.032Z,20.96
2017-08-01T08:24:24.565Z,21.09
2017-08-01T08:25:34.856Z,21.25
2017-08-01T08:26:45.315Z,21.34
2017-08-01T08:27:56.153Z,21.43
2017-08-01T08:29:06.629Z,21.5
2017-08-01T08:30:17.117Z,21.58
2017-08-01T08:31:27.755Z,21.54
2017-08-01T08:32:38.444Z,21.57
2017-08-01T08:33:49.172Z,21.57
2017-08-01T08:34:59.699Z,21.54
2017-08-01T08:36:10.227Z,21.68
2017-08-01T08:37:20.713Z,21.66
2017-08-01T08:38:31.224Z,21.75
2017-08-01T08:39:41.953Z,21.86
2017-08-01T08:40:52.188Z,21.96
2017-08-01T08:42:02.749Z,22.02
2017-08-01T08:43:13.329Z,22.24
2017-08-01T08:44:23.843Z,22.65
2017-08-01T08:45:34.611Z,23.06
2017-08-01T08:46:45.126Z,23.61
2017-08-01T08:47:55.760Z,24.05
2017-08-01T08:49:06.243Z,24.57
2017-08-01T08:50:16.819Z,24.99
2017-08-01T08:51:27.553Z,25.28
2017-08-01T08:52:38.020Z,25.65
2017-08-01T08:53:48.652Z,26.22
2017-08-01T08:54:59.371Z,26.66
2017-08-01T08:56:10.139Z,26.9
2017-08-01T08:57:20.570Z,27.31
2017-08-01T08:58:31.084Z,27.71
2017-08-01T08:59:41.552Z,28.19
2017-08-01T09:00:51.827Z,28.58
2017-08-01T09:02:02.430Z,28.99
2017-08-01T09:03:13.256Z,29.28
2017-08-01T09:04:23.825Z,29.54
2017-08-01T09:05:34.580Z,29.6
2017-08-01T09:06:45.300Z,29.6
2017-08-01T09:07:55.869Z,29.76
2017-08-01T09:09:06.610Z,29.87
2017-08-01T09:10:17.185Z,29.87
2017-08-01T09:11:27.681Z,29.92
2017-08-01T09:12:38.287Z,30.03
2017-08-01T09:13:48.762Z,30.02
2017-08-01T09:14:59.666Z,30.2
2017-08-01T09:16:10.185Z,30.08
2017-08-01T09:17:20.696Z,29.87
2017-08-01T09:18:31.189Z,29.88
2017-08-01T09:19:41.701Z,29.88
2017-08-01T09:20:52.450Z,29.99
2017-08-01T09:22:02.968Z,29.88
2017-08-01T09:23:13.523Z,29.6
2017-08-01T09:24:24.018Z,29.51
2017-08-01T09:25:34.564Z,29.54
2017-08-01T09:26:45.315Z,29.7
2017-08-01T09:27:55.851Z,29.72
2017-08-01T09:29:06.353Z,29.76
2017-08-01T09:30:16.844Z,29.67
2017-08-01T09:31:27.385Z,29.69
2017-08-01T09:32:38.164Z,29.62
2017-08-01T09:33:48.382Z,29.77
2017-08-01T09:34:59.182Z,29.73
2017-08-01T09:36:09.662Z,29.77
2017-08-01T09:37:20.176Z,29.8
2017-08-01T09:38:31.224Z,29.92
2017-08-01T09:39:41.761Z,29.66
2017-08-01T09:40:52.324Z,29.67
2017-08-01T09:42:02.854Z,29.72
2017-08-01T09:43:14.317Z,29.92
2017-08-01T09:44:25.104Z,29.87
2017-08-01T09:45:35.609Z,30.04
2017-08-01T09:46:46.099Z,30.12
2017-08-01T09:47:57.663Z,30.32
2017-08-01T09:49:08.181Z,30.45
2017-08-01T09:50:19.009Z,30.6
2017-08-01T09:51:29.517Z,30.86
2017-08-01T09:52:40.006Z,30.98
2017-08-01T09:53:50.687Z,31.28
2017-08-01T09:55:01.189Z,31.34
2017-08-01T09:56:12.067Z,31.41
2017-08-01T09:57:22.577Z,31.32
2017-08-01T09:58:33.296Z,31.16
2017-08-01T09:59:43.769Z,31.23
2017-08-01T10:00:54.318Z,31.28
2017-08-01T10:02:05.050Z,31.22
2017-08-01T10:03:15.638Z,30.97
2017-08-01T10:04:26.338Z,30.48
2017-08-01T10:05:36.925Z,30.12
2017-08-01T10:06:47.527Z,29.7
2017-08-01T10:07:58.269Z,29.5
2017-08-01T10:09:08.766Z,29.31
2017-08-01T10:10:19.302Z,29.02
2017-08-01T10:11:29.884Z,28.81
2017-08-01T10:12:39.777Z,28.67
2017-08-01T10:13:50.769Z,28.74
2017-08-01T10:15:01.335Z,28.5
2017-08-01T10:16:11.527Z,28.57
2017-08-01T10:17:23.042Z,28.72
2017-08-01T10:18:33.595Z,28.72
2017-08-01T10:19:44.356Z,28.6
2017-08-01T10:20:54.841Z,28.81
2017-08-01T10:22:05.343Z,28.89
2017-08-01T10:23:16.017Z,28.98
2017-08-01T10:24:26.541Z,28.95
2017-08-01T10:25:37.320Z,28.92
2017-08-01T10:26:47.874Z,29.18
2017-08-01T10:27:58.412Z,29.43
2017-08-01T10:29:08.951Z,29.69
2017-08-01T10:30:19.520Z,30.02
2017-08-01T10:31:31.270Z,30.12
2017-08-01T10:32:56.279Z,30.08
2017-08-01T10:34:06.815Z,30.25
2017-08-01T10:35:17.383Z,30.29
2017-08-01T10:36:28.158Z,30.2
2017-08-01T10:37:38.642Z,30.1
2017-08-01T10:38:48.695Z,29.92
2017-08-01T10:39:59.186Z,29.94
2017-08-01T10:41:09.728Z,30.04
2017-08-01T10:42:20.235Z,30.04
2017-08-01T10:43:30.801Z,30.11
2017-08-01T10:44:41.287Z,30.22
2017-08-01T10:45:51.989Z,30.25
2017-08-01T10:47:02.020Z,30.26
2017-08-01T10:48:13.018Z,30.19
2017-08-01T10:49:23.548Z,30.11
2017-08-01T10:50:34.245Z,29.88
2017-08-01T10:51:44.812Z,29.63
2017-08-01T10:52:55.389Z,29.47
2017-08-01T10:54:06.106Z,29.29
2017-08-01T10:55:16.379Z,29.33
2017-08-01T10:56:26.879Z,29.47
2017-08-01T10:57:37.395Z,29.5
2017-08-01T10:58:47.570Z,29.36
2017-08-01T10:59:58.349Z,29.38
2017-08-01T11:01:08.840Z,29.39
2017-08-01T11:02:19.456Z,29.39
2017-08-01T11:03:29.950Z,29.58
2017-08-01T11:04:40.430Z,29.88
2017-08-01T11:05:51.244Z,30.11
2017-08-01T11:07:01.802Z,30.27
2017-08-01T11:08:12.376Z,30.48
2017-08-01T11:09:22.973Z,30.59
2017-08-01T11:10:33.485Z,30.7
2017-08-01T11:11:43.923Z,30.79
2017-08-01T11:12:54.776Z,30.85
2017-08-01T11:14:05.340Z,30.94
2017-08-01T11:15:15.840Z,30.85
2017-08-01T11:16:26.347Z,30.76
2017-08-01T11:17:37.703Z,30.72
2017-08-01T11:18:48.240Z,30.67
2017-08-01T11:19:58.819Z,30.51
2017-08-01T11:21:09.407Z,30.47
2017-08-01T11:22:19.900Z,30.07
2017-08-01T11:23:30.683Z,29.94
2017-08-01T11:24:41.410Z,29.6
2017-08-01T11:25:51.920Z,29.36
2017-08-01T11:27:02.486Z,29.21
2017-08-01T11:28:13.139Z,29.06
2017-08-01T11:29:23.910Z,28.6
2017-08-01T11:30:34.119Z,28.36
2017-08-01T11:31:44.691Z,28.05
2017-08-01T11:32:55.189Z,27.92
2017-08-01T11:34:05.779Z,27.95
2017-08-01T11:35:16.522Z,27.8
2017-08-01T11:36:27.063Z,27.6
2017-08-01T11:37:37.597Z,27.48
2017-08-01T11:38:48.301Z,27.3
2017-08-01T11:39:58.822Z,27.14
2017-08-01T11:41:09.890Z,27.12
2017-08-01T11:42:20.377Z,27.11
2017-08-01T11:43:30.923Z,27.15
2017-08-01T11:44:41.437Z,27.14
2017-08-01T11:45:51.947Z,27.04
2017-08-01T11:47:02.655Z,26.99
2017-08-01T11:48:13.198Z,26.96
2017-08-01T11:49:23.737Z,26.83
2017-08-01T11:50:34.279Z,26.78
2017-08-01T11:51:44.778Z,26.59
2017-08-01T11:52:55.614Z,26.58
2017-08-01T11:54:06.117Z,26.46
2017-08-01T11:55:16.683Z,26.4
2017-08-01T11:56:27.272Z,26.34
2017-08-01T11:57:37.843Z,26.25
2017-08-01T11:58:48.588Z,26.19
2017-08-01T11:59:59.151Z,26.11
2017-08-01T12:01:09.645Z,25.96
2017-08-01T12:02:20.238Z,25.88
2017-08-01T12:03:30.769Z,25.77
2017-08-01T12:04:41.475Z,25.78
2017-08-01T12:05:51.731Z,25.71
2017-08-01T12:07:02.354Z,25.77
2017-08-01T12:08:12.650Z,25.77
2017-08-01T12:09:23.189Z,25.82
2017-08-01T12:10:33.992Z,25.88
2017-08-01T12:11:44.200Z,25.94
2017-08-01T12:12:54.691Z,25.97
2017-08-01T12:14:05.191Z,25.99
2017-08-01T12:15:15.684Z,26.02
2017-08-01T12:16:26.116Z,25.96
2017-08-01T12:17:36.176Z,26.06
2017-08-01T12:18:46.661Z,26.16
2017-08-01T12:19:57.200Z,26.12
2017-08-01T12:21:07.712Z,26.14
2017-08-01T12:22:18.478Z,26.12
2017-08-01T12:23:28.860Z,26.14
2017-08-01T12:24:39.564Z,26.18
2017-08-01T12:25:50.124Z,26.24
2017-08-01T12:27:00.620Z,26.4
2017-08-01T12:28:11.553Z,26.59
2017-08-01T12:29:22.069Z,26.71
2017-08-01T12:30:32.593Z,26.73
2017-08-01T12:31:43.268Z,26.82
2017-08-01T12:32:53.783Z,26.78
2017-08-01T12:34:04.723Z,26.8
2017-08-01T12:35:15.355Z,26.78
2017-08-01T12:36:25.868Z,26.66
2017-08-01T12:37:36.384Z,26.66
2017-08-01T12:38:46.854Z,26.45
2017-08-01T12:39:57.372Z,26.4
2017-08-01T12:41:07.865Z,26.33
2017-08-01T12:42:18.058Z,26.22
2017-08-01T12:43:28.627Z,26.19
2017-08-01T12:44:39.237Z,26.11
2017-08-01T12:45:49.591Z,26.15
2017-08-01T12:46:59.795Z,25.99
2017-08-01T12:48:10.299Z,26.02
2017-08-01T12:49:20.784Z,25.96
2017-08-01T12:50:31.374Z,25.81
2017-08-01T12:51:42.189Z,25.71
2017-08-01T12:52:52.445Z,25.71
2017-08-01T12:54:02.978Z,25.73
2017-08-01T12:55:13.520Z,25.68
2017-08-01T12:56:23.988Z,25.82
2017-08-01T12:57:34.776Z,25.81
2017-08-01T12:58:45.312Z,25.81
2017-08-01T12:59:55.822Z,25.71
2017-08-01T13:01:06.336Z,25.74
2017-08-01T13:02:16.840Z,25.73
2017-08-01T13:03:27.257Z,25.84
2017-08-01T13:04:37.861Z,25.85
2017-08-01T13:05:48.353Z,25.97
2017-08-01T13:06:59.040Z,26.07
2017-08-01T13:08:09.230Z,26.22
2017-08-01T13:09:20.260Z,26.14
2017-08-01T13:10:30.819Z,26.29
2017-08-01T13:11:41.048Z,26.33
2017-08-01T13:12:51.669Z,26.37
2017-08-01T13:14:02.204Z,26.36
2017-08-01T13:15:13.062Z,26.3
2017-08-01T13:16:23.543Z,26.29
2017-08-01T13:17:34.124Z,26.25
2017-08-01T13:18:44.642Z,26.27
2017-08-01T13:19:54.860Z,26.29
2017-08-01T13:21:05.714Z,26.31
2017-08-01T13:22:16.227Z,26.39
2017-08-01T13:23:26.411Z,26.41
2017-08-01T13:24:36.918Z,26.49
2017-08-01T13:25:47.509Z,26.43
2017-08-01T13:26:58.309Z,26.51
2017-08-01T13:28:08.792Z,26.48
2017-08-01T13:29:19.374Z,26.46
2017-08-01T13:30:29.865Z,26.33
2017-08-01T13:31:40.425Z,26.4
2017-08-01T13:32:51.327Z,26.34
2017-08-01T13:34:01.877Z,26.18
2017-08-01T13:35:12.366Z,26.22
2017-08-01T13:36:22.857Z,26.03
2017-08-01T13:37:33.370Z,25.93
2017-08-01T13:38:44.165Z,25.93
2017-08-01T13:39:54.695Z,25.97
2017-08-01T13:41:04.883Z,25.97
2017-08-01T13:42:15.396Z,26.02
2017-08-01T13:43:25.574Z,26.02
2017-08-01T13:44:36.291Z,26.04
2017-08-01T13:45:46.804Z,26.18
2017-08-01T13:46:56.991Z,26.16
2017-08-01T13:48:07.182Z,26.18
2017-08-01T13:49:17.845Z,26.27
2017-08-01T13:50:28.292Z,26.29
2017-08-01T13:51:39.018Z,26.31
2017-08-01T13:52:49.538Z,26.21
2017-08-01T13:54:00.077Z,26.21
2017-08-01T13:55:10.593Z,26.29
2017-08-01T13:56:21.353Z,26.16
2017-08-01T13:57:31.896Z,26.3
2017-08-01T13:58:42.394Z,26.25
2017-08-01T13:59:52.593Z,26.24
2017-08-01T14:01:02.861Z,26.19
2017-08-01T14:02:13.763Z,26.15
2017-08-01T14:03:24.300Z,26.12
2017-08-01T14:04:34.850Z,26.12
2017-08-01T14:05:45.378Z,26.07
2017-08-01T14:06:56.068Z,26
2017-08-01T14:08:07.003Z,26.06
2017-08-01T14:09:17.587Z,26.06
2017-08-01T14:10:28.098Z,26.18
2017-08-01T14:11:38.566Z,26.19
2017-08-01T14:12:49.090Z,26.33
2017-08-01T14:13:59.890Z,26.3
2017-08-01T14:15:10.427Z,26.31
2017-08-01T14:16:21.058Z,26.36
2017-08-01T14:17:31.366Z,26.31
2017-08-01T14:18:41.891Z,26.31
2017-08-01T14:19:52.652Z,26.36
2017-08-01T14:21:03.562Z,26.31
2017-08-01T14:22:14.053Z,26.31
2017-08-01T14:23:24.572Z,26.31
2017-08-01T14:24:35.182Z,26.31
2017-08-01T14:25:45.960Z,26.37
2017-08-01T14:26:56.467Z,26.29
2017-08-01T14:28:07.068Z,26.27
2017-08-01T14:29:17.572Z,26.22
2017-08-01T14:30:28.090Z,26.27
2017-08-01T14:31:39.047Z,26.27
2017-08-01T14:32:49.564Z,26.09
2017-08-01T14:33:59.831Z,26.14
2017-08-01T14:35:10.373Z,26.09
2017-08-01T14:36:20.853Z,26.06
2017-08-01T14:37:31.651Z,25.97
2017-08-01T14:38:42.158Z,25.92
2017-08-01T14:39:52.638Z,25.9
2017-08-01T14:41:03.115Z,25.87
2017-08-01T14:42:13.862Z,25.81
2017-08-01T14:43:24.715Z,25.84
2017-08-01T14:44:35.241Z,25.78
2017-08-01T14:45:45.792Z,25.77
2017-08-01T14:46:56.495Z,25.77
2017-08-01T14:48:07.005Z,25.74
2017-08-01T14:49:17.797Z,25.71
2017-08-01T14:50:28.404Z,25.74
2017-08-01T14:51:38.904Z,25.73
2017-08-01T14:52:49.555Z,25.81
2017-08-01T14:53:59.752Z,25.81
2017-08-01T14:55:10.483Z,25.77
2017-08-01T14:56:21.095Z,25.76
2017-08-01T14:57:31.610Z,25.76
2017-08-01T14:58:42.107Z,25.76
2017-08-01T14:59:52.226Z,25.69
2017-08-01T15:01:03.007Z,25.62
2017-08-01T15:02:13.510Z,25.61
2017-08-01T15:03:24.029Z,25.59
2017-08-01T15:04:34.618Z,25.64
2017-08-01T15:05:45.061Z,25.54
2017-08-01T15:06:55.908Z,25.52
2017-08-01T15:08:06.384Z,25.47
2017-08-01T15:09:16.867Z,25.42
2017-08-01T15:10:27.411Z,25.39
2017-08-01T15:11:37.993Z,25.39
2017-08-01T15:12:48.798Z,25.28